createdAt,value
2018-10-03T00:00:01.058Z,1002.20
2018-10-03T00:01:01.058Z,1002.24
2018-10-03T00:02:01.070Z,1002.16
2018-10-03T00:03:01.099Z,1002.17
2018-10-03T00:04:01.102Z,1002.21
2018-10-03T00:05:01.127Z,1002.17
2018-10-03T00:06:01.139Z,1002.18
2018-10-03T00:07:01.162Z,1002.23
2018-10-03T00:08:01.174Z,1002.24
2018-10-03T00:09:01.193Z,1002.32
2018-10-03T00:10:01.213Z,1002.31
2018-10-03T00:11:01.222Z,1002.25
2018-10-03T00:12:01.237Z,1002.27
2018-10-03T00:13:01.252Z,1002.39
2018-10-03T00:14:01.273Z,1002.40
2018-10-03T00:15:01.287Z,1002.37
2018-10-03T00:16:01.304Z,1002.39
2018-10-03T00:17:01.316Z,1002.38
2018-10-03T00:18:01.348Z,1002.34
2018-10-03T00:19:01.351Z,1002.34
2018-10-03T00:20:01.366Z,1002.39
2018-10-03T00:21:01.388Z,1002.44
2018-10-03T00:22:01.400Z,1002.47
2018-10-03T00:23:01.433Z,1002.43
2018-10-03T00:24:01.441Z,1002.42
2018-10-03T00:25:01.453Z,1002.42
2018-10-03T00:26:01.475Z,1002.49
2018-10-03T00:27:01.480Z,1002.41
2018-10-03T00:28:01.501Z,1002.42
2018-10-03T00:29:01.523Z,1002.43
2018-10-03T00:30:01.538Z,1002.48
2018-10-03T00:31:01.553Z,1002.41
2018-10-03T00:32:01.565Z,1002.44
2018-10-03T00:33:01.583Z,1002.47
2018-10-03T00:34:01.606Z,1002.44
2018-10-03T00:35:01.613Z,1002.50
2018-10-03T00:36:01.627Z,1002.43
2018-10-03T00:37:01.653Z,1002.40
2018-10-03T00:38:01.662Z,1002.38
2018-10-03T00:39:01.680Z,1002.38
2018-10-03T00:40:01.706Z,1002.43
2018-10-03T00:41:01.732Z,1002.44
2018-10-03T00:42:01.730Z,1002.44
2018-10-03T00:43:01.757Z,1002.43
2018-10-03T00:44:01.771Z,1002.48
2018-10-03T00:45:01.777Z,1002.41
2018-10-03T00:46:01.800Z,1002.48
2018-10-03T00:47:01.813Z,1002.50
2018-10-03T00:48:01.846Z,1002.52
2018-10-03T00:49:01.852Z,1002.42
2018-10-03T00:50:01.861Z,1002.46
2018-10-03T00:51:01.898Z,1002.45
2018-10-03T00:52:01.893Z,1002.46
2018-10-03T00:53:01.915Z,1002.49
2018-10-03T00:54:01.930Z,1002.51
2018-10-03T00:55:01.943Z,1002.53
2018-10-03T00:56:01.966Z,1002.54
2018-10-03T00:57:01.981Z,1002.51
2018-10-03T00:58:01.997Z,1002.48
2018-10-03T00:59:02.007Z,1002.54
2018-10-03T01:00:02.025Z,1002.52
2018-10-03T01:01:02.041Z,1002.51
2018-10-03T01:02:02.059Z,1002.52
2018-10-03T01:03:02.072Z,1002.56
2018-10-03T01:04:02.096Z,1002.56
2018-10-03T01:05:02.111Z,1002.51
2018-10-03T01:06:02.128Z,1002.58
2018-10-03T01:07:02.154Z,1002.57
2018-10-03T01:08:02.175Z,1002.56
2018-10-03T01:09:02.174Z,1002.64
2018-10-03T01:10:02.189Z,1002.64
2018-10-03T01:11:02.207Z,1002.69
2018-10-03T01:12:02.222Z,1002.62
2018-10-03T01:13:02.242Z,1002.70
2018-10-03T01:14:02.255Z,1002.70
2018-10-03T01:15:02.280Z,1002.70
2018-10-03T01:16:02.312Z,1002.72
2018-10-03T01:17:02.319Z,1002.67
2018-10-03T01:18:02.342Z,1002.65
2018-10-03T01:19:02.345Z,1002.68
2018-10-03T01:20:02.356Z,1002.63
2018-10-03T01:21:02.381Z,1002.65
2018-10-03T01:22:02.388Z,1002.63
2018-10-03T01:23:02.410Z,1002.62
2018-10-03T01:24:02.420Z,1002.61
2018-10-03T01:25:02.452Z,1002.62
2018-10-03T01:26:02.461Z,1002.56
2018-10-03T01:27:02.471Z,1002.55
2018-10-03T01:28:02.490Z,1002.55
2018-10-03T01:29:02.511Z,1002.53
2018-10-03T01:30:02.527Z,1002.56
2018-10-03T01:31:02.532Z,1002.57
2018-10-03T01:32:02.572Z,1002.56
2018-10-03T01:33:02.577Z,1002.58
2018-10-03T01:34:02.589Z,1002.60
2018-10-03T01:35:02.604Z,1002.65
2018-10-03T01:36:02.617Z,1002.68
2018-10-03T01:37:02.637Z,1002.66
2018-10-03T01:38:02.664Z,1002.68
2018-10-03T01:39:02.677Z,1002.71
2018-10-03T01:40:02.686Z,1002.73
2018-10-03T01:41:02.700Z,1002.75
2018-10-03T01:42:02.719Z,1002.69
2018-10-03T01:43:02.734Z,1002.72
2018-10-03T01:44:02.756Z,1002.77
2018-10-03T01:45:02.766Z,1002.79
2018-10-03T01:46:02.785Z,1002.74
2018-10-03T01:47:02.800Z,1002.71
2018-10-03T01:48:02.827Z,1002.76
2018-10-03T01:49:02.830Z,1002.68
2018-10-03T01:50:02.849Z,1002.82
2018-10-03T01:51:02.863Z,1002.77
2018-10-03T01:52:02.880Z,1002.79
2018-10-03T01:53:02.899Z,1002.72
2018-10-03T01:54:02.924Z,1002.77
2018-10-03T01:55:02.929Z,1002.78
2018-10-03T01:56:02.942Z,1002.75
2018-10-03T01:57:02.960Z,1002.73
2018-10-03T01:58:02.981Z,1002.67
2018-10-03T01:59:02.998Z,1002.66
2018-10-03T02:00:03.022Z,1002.65
2018-10-03T02:01:03.029Z,1002.74
2018-10-03T02:02:03.047Z,1002.69
2018-10-03T02:03:03.057Z,1002.74
2018-10-03T02:04:03.092Z,1002.74
2018-10-03T02:05:03.093Z,1002.70
2018-10-03T02:06:03.122Z,1002.69
2018-10-03T02:07:03.144Z,1002.73
2018-10-03T02:08:03.143Z,1002.73
2018-10-03T02:09:03.166Z,1002.69
2018-10-03T02:10:03.178Z,1002.69
2018-10-03T02:11:03.202Z,1002.76
2018-10-03T02:12:03.209Z,1002.75
2018-10-03T02:13:03.227Z,1002.73
2018-10-03T02:14:03.246Z,1002.73
2018-10-03T02:15:03.257Z,1002.77
2018-10-03T02:16:03.275Z,1002.77
2018-10-03T02:17:03.354Z,1002.67
2018-10-03T02:18:03.306Z,1002.68
2018-10-03T02:19:03.335Z,1002.71
2018-10-03T02:20:03.339Z,1002.70
2018-10-03T02:21:03.355Z,1002.67
2018-10-03T02:22:03.371Z,1002.70
2018-10-03T02:23:03.393Z,1002.69
2018-10-03T02:24:03.423Z,1002.68
2018-10-03T02:25:03.420Z,1002.61
2018-10-03T02:26:03.437Z,1002.61
2018-10-03T02:27:03.455Z,1002.69
2018-10-03T02:28:03.474Z,1002.68
2018-10-03T02:29:03.487Z,1002.65
2018-10-03T02:30:03.525Z,1002.64
2018-10-03T02:31:03.518Z,1002.69
2018-10-03T02:32:03.535Z,1002.71
2018-10-03T02:33:03.555Z,1002.69
2018-10-03T02:34:03.570Z,1002.76
2018-10-03T02:35:03.585Z,1002.70
2018-10-03T02:36:03.606Z,1002.74
2018-10-03T02:37:03.619Z,1002.75
2018-10-03T02:38:03.636Z,1002.70
2018-10-03T02:39:03.654Z,1002.74
2018-10-03T02:40:03.670Z,1002.71
2018-10-03T02:41:03.682Z,1002.78
2018-10-03T02:42:03.703Z,1002.76
2018-10-03T02:43:03.727Z,1002.75
2018-10-03T02:44:03.733Z,1002.75
2018-10-03T02:45:03.759Z,1002.80
2018-10-03T02:46:03.772Z,1002.75
2018-10-03T02:47:03.779Z,1002.80
2018-10-03T02:48:03.801Z,1002.82
2018-10-03T02:49:03.818Z,1002.85
2018-10-03T02:50:03.844Z,1002.79
2018-10-03T02:51:03.848Z,1002.87
2018-10-03T02:52:03.868Z,1002.82
2018-10-03T02:53:03.886Z,1002.84
2018-10-03T02:54:03.916Z,1002.83
2018-10-03T02:55:03.913Z,1002.87
2018-10-03T02:56:03.930Z,1002.83
2018-10-03T02:57:03.983Z,1002.82
2018-10-03T02:58:04.017Z,1002.83
2018-10-03T02:59:03.986Z,1002.87
2018-10-03T03:00:03.997Z,1002.93
2018-10-03T03:01:04.017Z,1002.90
2018-10-03T03:02:04.033Z,1002.96
2018-10-03T03:03:04.050Z,1002.91
2018-10-03T03:04:04.061Z,1002.94
2018-10-03T03:05:04.084Z,1002.92
2018-10-03T03:06:04.097Z,1002.95
2018-10-03T03:07:04.120Z,1002.96
2018-10-03T03:08:04.128Z,1002.99
2018-10-03T03:09:04.176Z,1003.01
2018-10-03T03:10:04.167Z,1002.96
2018-10-03T03:11:04.176Z,1002.99
2018-10-03T03:12:04.207Z,1003.01
2018-10-03T03:13:04.216Z,1003.01
2018-10-03T03:14:04.225Z,1003.07
2018-10-03T03:15:04.245Z,1003.05
2018-10-03T03:16:04.261Z,1002.99
2018-10-03T03:17:04.278Z,1003.07
2018-10-03T03:18:04.311Z,1003.04
2018-10-03T03:19:04.312Z,1003.04
2018-10-03T03:20:04.329Z,1003.13
2018-10-03T03:21:04.347Z,1003.12
2018-10-03T03:22:04.360Z,1003.13
2018-10-03T03:23:04.386Z,1003.11
2018-10-03T03:24:04.395Z,1003.01
2018-10-03T03:25:04.415Z,1003.08
2018-10-03T03:26:04.423Z,1003.06
2018-10-03T03:27:04.453Z,1002.99
2018-10-03T03:28:04.458Z,1003.03
2018-10-03T03:29:04.477Z,1003.02
2018-10-03T03:30:04.491Z,1003.01
2018-10-03T03:31:04.524Z,1003.04
2018-10-03T03:32:04.545Z,1003.10
2018-10-03T03:33:04.540Z,1003.06
2018-10-03T03:34:04.559Z,1003.03
2018-10-03T03:35:04.580Z,1003.04
2018-10-03T03:36:04.591Z,1003.13
2018-10-03T03:37:04.610Z,1003.06
2018-10-03T03:38:04.629Z,1003.15
2018-10-03T03:39:04.668Z,1003.11
2018-10-03T03:40:04.657Z,1003.18
2018-10-03T03:41:04.678Z,1003.21
2018-10-03T03:42:04.699Z,1003.13
2018-10-03T03:43:04.710Z,1003.21
2018-10-03T03:44:04.722Z,1003.21
2018-10-03T03:45:04.746Z,1003.17
2018-10-03T03:46:04.757Z,1003.11
2018-10-03T03:47:04.784Z,1003.14
2018-10-03T03:48:04.796Z,1003.15
2018-10-03T03:49:04.810Z,1003.11
2018-10-03T03:50:04.827Z,1003.17
2018-10-03T03:51:04.852Z,1003.18
2018-10-03T03:52:04.859Z,1003.22
2018-10-03T03:53:04.875Z,1003.16
2018-10-03T03:54:04.898Z,1003.23
2018-10-03T03:55:04.918Z,1003.16
2018-10-03T03:56:04.929Z,1003.23
2018-10-03T03:57:04.944Z,1003.23
2018-10-03T03:58:04.960Z,1003.26
2018-10-03T03:59:04.975Z,1003.28
2018-10-03T04:00:04.990Z,1003.27
2018-10-03T04:01:05.014Z,1003.29
2018-10-03T04:02:05.033Z,1003.33
2018-10-03T04:03:05.038Z,1003.29
2018-10-03T04:04:05.061Z,1003.32
2018-10-03T04:05:05.075Z,1003.32
2018-10-03T04:06:05.091Z,1003.33
2018-10-03T04:07:05.108Z,1003.33
2018-10-03T04:08:05.129Z,1003.31
2018-10-03T04:09:05.149Z,1003.32
2018-10-03T04:10:05.191Z,1003.32
2018-10-03T04:11:05.183Z,1003.35
2018-10-03T04:12:05.190Z,1003.36
2018-10-03T04:13:05.208Z,1003.37
2018-10-03T04:14:05.224Z,1003.34
2018-10-03T04:15:05.258Z,1003.33
2018-10-03T04:16:05.262Z,1003.34
2018-10-03T04:17:05.289Z,1003.32
2018-10-03T04:18:05.290Z,1003.34
2018-10-03T04:19:05.309Z,1003.39
2018-10-03T04:20:05.329Z,1003.40
2018-10-03T04:21:05.347Z,1003.44
2018-10-03T04:22:05.357Z,1003.44
2018-10-03T04:23:05.382Z,1003.40
2018-10-03T04:24:05.398Z,1003.41
2018-10-03T04:25:05.409Z,1003.48
2018-10-03T04:26:05.426Z,1003.46
2018-10-03T04:27:05.446Z,1003.46
2018-10-03T04:28:05.464Z,1003.49
2018-10-03T04:29:05.479Z,1003.51
2018-10-03T04:30:05.504Z,1003.51
2018-10-03T04:31:05.507Z,1003.45
2018-10-03T04:32:05.530Z,1003.53
2018-10-03T04:33:05.549Z,1003.50
2018-10-03T04:34:05.562Z,1003.53
2018-10-03T04:35:05.582Z,1003.52
2018-10-03T04:36:05.592Z,1003.50
2018-10-03T04:37:05.615Z,1003.56
2018-10-03T04:38:05.630Z,1003.57
2018-10-03T04:39:05.649Z,1003.62
2018-10-03T04:40:05.665Z,1003.60
2018-10-03T04:41:05.686Z,1003.58
2018-10-03T04:42:05.775Z,1003.59
2018-10-03T04:43:05.734Z,1003.57
2018-10-03T04:44:05.727Z,1003.63
2018-10-03T04:45:05.748Z,1003.69
2018-10-03T04:46:05.769Z,1003.62
2018-10-03T04:47:05.780Z,1003.62
2018-10-03T04:48:05.794Z,1003.65
2018-10-03T04:49:05.911Z,1003.66
2018-10-03T04:50:05.840Z,1003.66
2018-10-03T04:51:05.850Z,1003.66
2018-10-03T04:52:05.867Z,1003.68
2018-10-03T04:53:05.879Z,1003.68
2018-10-03T04:54:05.908Z,1003.65
2018-10-03T04:55:05.911Z,1003.67
2018-10-03T04:56:05.933Z,1003.67
2018-10-03T04:57:05.948Z,1003.59
2018-10-03T04:58:05.972Z,1003.66
2018-10-03T04:59:05.990Z,1003.68
2018-10-03T05:00:06.006Z,1003.63
2018-10-03T05:01:06.016Z,1003.63
2018-10-03T05:02:06.039Z,1003.67
2018-10-03T05:03:06.052Z,1003.64
2018-10-03T05:04:06.074Z,1003.67
2018-10-03T05:05:06.092Z,1003.64
2018-10-03T05:06:06.101Z,1003.71
2018-10-03T05:07:06.122Z,1003.70
2018-10-03T05:08:06.133Z,1003.74
2018-10-03T05:09:06.330Z,1003.75
2018-10-03T05:10:06.167Z,1003.77
2018-10-03T05:11:06.194Z,1003.75
2018-10-03T05:12:06.206Z,1003.75
2018-10-03T05:13:06.215Z,1003.79
2018-10-03T05:14:06.233Z,1003.82
2018-10-03T05:15:06.252Z,1003.80
2018-10-03T05:16:06.271Z,1003.80
2018-10-03T05:17:06.291Z,1003.82
2018-10-03T05:18:06.304Z,1003.82
2018-10-03T05:19:06.322Z,1003.82
2018-10-03T05:20:06.343Z,1003.91
2018-10-03T05:21:06.353Z,1003.87
2018-10-03T05:22:06.390Z,1003.91
2018-10-03T05:23:06.389Z,1003.96
2018-10-03T05:24:06.418Z,1003.95
2018-10-03T05:25:06.421Z,1003.96
2018-10-03T05:26:06.434Z,1004.03
2018-10-03T05:27:06.453Z,1004.05
2018-10-03T05:28:06.493Z,1004.07
2018-10-03T05:29:06.524Z,1004.11
2018-10-03T05:30:06.548Z,1004.09
2018-10-03T05:31:06.552Z,1004.14
2018-10-03T05:32:06.546Z,1004.16
2018-10-03T05:33:06.559Z,1004.18
2018-10-03T05:34:06.585Z,1004.17
2018-10-03T05:35:06.593Z,1004.18
2018-10-03T05:36:06.601Z,1004.23
2018-10-03T05:37:06.619Z,1004.17
2018-10-03T05:38:06.649Z,1004.28
2018-10-03T05:39:06.655Z,1004.26
2018-10-03T05:40:06.672Z,1004.30
2018-10-03T05:41:06.692Z,1004.32
2018-10-03T05:42:06.705Z,1004.35
2018-10-03T05:43:06.727Z,1004.30
2018-10-03T05:44:06.742Z,1004.35
2018-10-03T05:45:06.757Z,1004.33
2018-10-03T05:46:06.774Z,1004.37
2018-10-03T05:47:06.787Z,1004.44
2018-10-03T05:48:06.807Z,1004.47
2018-10-03T05:49:06.824Z,1004.55
2018-10-03T05:50:06.839Z,1004.59
2018-10-03T05:51:06.867Z,1004.62
2018-10-03T05:52:06.870Z,1004.61
2018-10-03T05:53:06.896Z,1004.72
2018-10-03T05:54:06.907Z,1004.74
2018-10-03T05:55:06.919Z,1004.76
2018-10-03T05:56:06.942Z,1004.74
2018-10-03T05:57:06.961Z,1004.73
2018-10-03T05:58:06.977Z,1004.79
2018-10-03T05:59:06.988Z,1004.78
2018-10-03T06:00:07.013Z,1004.80
2018-10-03T06:01:07.026Z,1004.89
2018-10-03T06:02:07.050Z,1004.89
2018-10-03T06:03:07.057Z,1004.88
2018-10-03T06:04:07.079Z,1004.95
2018-10-03T06:05:07.096Z,1004.91
2018-10-03T06:06:07.125Z,1004.93
2018-10-03T06:07:07.175Z,1004.99
2018-10-03T06:08:07.145Z,1005.04
2018-10-03T06:09:07.168Z,1004.99
2018-10-03T06:10:07.197Z,1005.05
2018-10-03T06:11:07.194Z,1005.06
2018-10-03T06:12:07.277Z,1005.04
2018-10-03T06:13:07.234Z,1005.11
2018-10-03T06:14:07.243Z,1005.09
2018-10-03T06:15:07.261Z,1005.10
2018-10-03T06:16:07.280Z,1005.15
2018-10-03T06:17:07.293Z,1005.07
2018-10-03T06:18:07.314Z,1005.15
2018-10-03T06:19:07.337Z,1005.14
2018-10-03T06:20:07.351Z,1005.14
2018-10-03T06:21:07.365Z,1005.19
2018-10-03T06:22:07.379Z,1005.20
2018-10-03T06:23:07.408Z,1005.14
2018-10-03T06:24:07.416Z,1005.20
2018-10-03T06:25:07.434Z,1005.27
2018-10-03T06:26:07.462Z,1005.23
2018-10-03T06:27:07.488Z,1005.27
2018-10-03T06:28:07.540Z,1005.23
2018-10-03T06:29:07.549Z,1005.31
2018-10-03T06:30:07.521Z,1005.34
2018-10-03T06:31:07.535Z,1005.40
2018-10-03T06:32:07.550Z,1005.44
2018-10-03T06:33:07.595Z,1005.48
2018-10-03T06:34:07.594Z,1005.46
2018-10-03T06:35:07.617Z,1005.44
2018-10-03T06:36:07.622Z,1005.39
2018-10-03T06:37:07.645Z,1005.34
2018-10-03T06:38:07.656Z,1005.41
2018-10-03T06:39:07.674Z,1005.51
2018-10-03T06:40:07.700Z,1005.61
2018-10-03T06:41:07.715Z,1005.55
2018-10-03T06:42:07.721Z,1005.44
2018-10-03T06:43:07.746Z,1005.50
2018-10-03T06:44:07.759Z,1005.48
2018-10-03T06:45:07.777Z,1005.52
2018-10-03T06:46:07.804Z,1005.50
2018-10-03T06:47:07.816Z,1005.58
2018-10-03T06:48:07.831Z,1005.58
2018-10-03T06:49:07.843Z,1005.68
2018-10-03T06:50:07.862Z,1005.74
2018-10-03T06:51:07.889Z,1005.79
2018-10-03T06:52:07.900Z,1005.82
2018-10-03T06:53:07.917Z,1005.70
2018-10-03T06:54:07.941Z,1005.76
2018-10-03T06:55:07.948Z,1005.91
2018-10-03T06:56:07.967Z,1005.92
2018-10-03T06:57:08.161Z,1005.88
2018-10-03T06:58:08.001Z,1005.94
2018-10-03T06:59:08.028Z,1005.98
2018-10-03T07:00:08.033Z,1006.02
2018-10-03T07:01:08.062Z,1006.09
2018-10-03T07:02:08.074Z,1006.08
2018-10-03T07:03:08.087Z,1006.16
2018-10-03T07:04:08.110Z,1006.26
2018-10-03T07:05:08.121Z,1006.17
2018-10-03T07:06:08.160Z,1006.06
2018-10-03T07:07:08.153Z,1006.06
2018-10-03T07:08:08.188Z,1006.16
2018-10-03T07:09:08.200Z,1006.18
2018-10-03T07:10:08.211Z,1006.26
2018-10-03T07:11:08.230Z,1006.30
2018-10-03T07:12:08.252Z,1006.54
2018-10-03T07:13:08.343Z,1006.51
2018-10-03T07:14:08.288Z,1006.47
2018-10-03T07:15:08.314Z,1009.79
2018-10-03T07:16:08.318Z,1006.46
2018-10-03T07:17:08.335Z,1007.76
2018-10-03T07:18:08.349Z,1010.32
2018-10-03T07:19:08.368Z,1006.65
2018-10-03T07:20:08.484Z,1007.95
2018-10-03T07:21:08.406Z,1009.47
2018-10-03T07:22:08.442Z,1008.22
2018-10-03T07:23:08.444Z,1009.29
2018-10-03T07:24:08.459Z,1009.87
2018-10-03T07:25:08.483Z,1009.55
2018-10-03T07:26:08.562Z,1009.38
2018-10-03T07:27:08.523Z,1009.12
2018-10-03T07:28:08.543Z,1008.08
2018-10-03T07:29:08.555Z,1008.80
2018-10-03T07:30:08.571Z,1009.23
2018-10-03T07:31:08.591Z,1008.85
2018-10-03T07:32:08.615Z,1008.91
2018-10-03T07:33:08.648Z,1008.17
2018-10-03T07:34:08.650Z,1008.03
2018-10-03T07:35:08.668Z,1007.81
2018-10-03T07:36:08.691Z,1008.14
2018-10-03T07:37:08.712Z,1008.24
2018-10-03T07:38:08.734Z,1008.30
2018-10-03T07:39:08.748Z,1008.03
2018-10-03T07:40:08.774Z,1007.92
2018-10-03T07:41:08.804Z,1008.06
2018-10-03T07:42:08.811Z,1008.02
2018-10-03T07:43:08.832Z,1007.90
2018-10-03T07:44:08.876Z,1007.64
2018-10-03T07:45:08.877Z,1007.88
2018-10-03T07:46:08.900Z,1007.72
2018-10-03T07:47:08.925Z,1007.48
2018-10-03T07:48:08.996Z,1007.56
2018-10-03T07:49:08.969Z,1007.34
2018-10-03T07:50:08.980Z,1007.54
2018-10-03T07:51:09.013Z,1007.55
2018-10-03T07:52:09.034Z,1007.49
2018-10-03T07:53:09.054Z,1007.54
2018-10-03T07:54:09.079Z,1007.63
2018-10-03T07:55:09.088Z,1007.68
2018-10-03T07:56:09.119Z,1007.70
2018-10-03T07:57:09.134Z,1007.65
2018-10-03T07:58:09.173Z,1007.70
2018-10-03T07:59:09.285Z,1007.65
2018-10-03T08:00:09.210Z,1007.50
2018-10-03T08:01:09.237Z,1007.71
2018-10-03T08:02:09.251Z,1007.62
2018-10-03T08:03:09.262Z,1007.61
2018-10-03T08:04:09.303Z,1007.62
2018-10-03T08:05:09.323Z,1007.47
2018-10-03T08:06:09.336Z,1007.31
2018-10-03T08:07:09.351Z,1007.44
2018-10-03T08:08:09.373Z,1007.59
2018-10-03T08:09:09.393Z,1007.56
2018-10-03T08:10:09.420Z,1007.70
2018-10-03T08:11:09.435Z,1007.71
2018-10-03T08:12:09.457Z,1007.58
2018-10-03T08:13:09.485Z,1007.73
2018-10-03T08:14:09.502Z,1007.69
2018-10-03T08:15:09.532Z,1007.42
2018-10-03T08:16:09.544Z,1007.27
2018-10-03T08:17:09.574Z,1007.46
2018-10-03T08:18:09.587Z,1007.43
2018-10-03T08:19:09.602Z,1007.47
2018-10-03T08:20:09.628Z,1007.49
2018-10-03T08:21:09.660Z,1007.42
2018-10-03T08:22:09.682Z,1007.31
2018-10-03T08:23:09.697Z,1007.36
2018-10-03T08:24:09.713Z,1007.35
2018-10-03T08:25:09.725Z,1007.33
2018-10-03T08:26:09.751Z,1007.33
2018-10-03T08:27:09.803Z,1007.34
2018-10-03T08:28:09.803Z,1007.34
2018-10-03T08:29:09.833Z,1007.49
2018-10-03T08:30:09.856Z,1007.54
2018-10-03T08:31:09.850Z,1007.51
2018-10-03T08:32:09.871Z,1007.52
2018-10-03T08:33:09.921Z,1007.64
2018-10-03T08:34:09.906Z,1007.61
2018-10-03T08:35:09.934Z,1007.55
2018-10-03T08:36:09.945Z,1007.47
2018-10-03T08:37:09.973Z,1007.49
2018-10-03T08:38:09.987Z,1007.49
2018-10-03T08:39:10.002Z,1007.42
2018-10-03T08:40:10.099Z,1007.38
2018-10-03T08:41:10.041Z,1007.49
2018-10-03T08:42:10.074Z,1007.50
2018-10-03T08:43:10.087Z,1007.50
2018-10-03T08:44:10.105Z,1007.55
2018-10-03T08:45:10.120Z,1007.62
2018-10-03T08:46:10.138Z,1007.50
2018-10-03T08:47:10.162Z,1007.44
2018-10-03T08:48:10.179Z,1007.50
2018-10-03T08:49:10.199Z,1007.57
2018-10-03T08:50:10.221Z,1007.61
2018-10-03T08:51:10.239Z,1007.58
2018-10-03T08:52:10.276Z,1007.58
2018-10-03T08:53:10.278Z,1007.59
2018-10-03T08:54:10.299Z,1007.75
2018-10-03T08:55:10.311Z,1007.57
2018-10-03T08:56:10.336Z,1007.57
2018-10-03T08:57:10.359Z,1007.78
2018-10-03T08:58:10.400Z,1007.65
2018-10-03T08:59:10.395Z,1007.87
2018-10-03T09:00:10.425Z,1007.78
2018-10-03T09:01:10.427Z,1007.84
2018-10-03T09:02:10.450Z,1007.98
2018-10-03T09:03:10.468Z,1008.00
2018-10-03T09:04:10.486Z,1007.98
2018-10-03T09:05:10.515Z,1007.97
2018-10-03T09:06:10.537Z,1007.86
2018-10-03T09:07:10.542Z,1007.98
2018-10-03T09:08:10.560Z,1007.86
2018-10-03T09:09:10.589Z,1007.96
2018-10-03T09:10:10.615Z,1007.95
2018-10-03T09:11:10.620Z,1008.16
2018-10-03T09:12:10.638Z,1007.99
2018-10-03T09:13:10.665Z,1007.87
2018-10-03T09:14:10.682Z,1007.89
2018-10-03T09:15:10.702Z,1007.85
2018-10-03T09:16:10.722Z,1008.04
2018-10-03T09:17:10.738Z,1008.19
2018-10-03T09:18:10.758Z,1008.32
2018-10-03T09:19:10.774Z,1008.10
2018-10-03T09:20:10.790Z,1008.25
2018-10-03T09:21:10.849Z,1008.25
2018-10-03T09:22:10.866Z,1008.31
2018-10-03T09:23:10.858Z,1008.39
2018-10-03T09:24:10.880Z,1008.43
2018-10-03T09:25:10.890Z,1008.35
2018-10-03T09:26:10.911Z,1008.40
2018-10-03T09:27:10.938Z,1008.28
2018-10-03T09:28:10.946Z,1008.10
2018-10-03T09:29:11.028Z,1008.17
2018-10-03T09:30:10.990Z,1008.23
2018-10-03T09:31:11.033Z,1008.28
2018-10-03T09:32:11.029Z,1008.38
2018-10-03T09:33:11.064Z,1008.45
2018-10-03T09:34:11.062Z,1008.42
2018-10-03T09:35:11.088Z,1008.29
2018-10-03T09:36:11.101Z,1008.20
2018-10-03T09:37:11.125Z,1008.40
2018-10-03T09:38:11.180Z,1008.31
2018-10-03T09:39:11.158Z,1008.29
2018-10-03T09:40:11.180Z,1008.36
2018-10-03T09:41:11.203Z,1008.40
2018-10-03T09:42:11.219Z,1008.30
2018-10-03T09:43:11.239Z,1008.28
2018-10-03T09:44:11.277Z,1008.26
2018-10-03T09:45:11.385Z,1008.27
2018-10-03T09:46:11.300Z,1008.38
2018-10-03T09:47:11.399Z,1008.27
2018-10-03T09:48:11.333Z,1008.40
2018-10-03T09:49:11.357Z,1008.34
2018-10-03T09:50:11.377Z,1008.40
2018-10-03T09:51:11.390Z,1008.52
2018-10-03T09:52:11.411Z,1008.56
2018-10-03T09:53:11.430Z,1008.59
2018-10-03T09:54:11.447Z,1008.47
2018-10-03T09:55:11.505Z,1008.51
2018-10-03T09:56:11.485Z,1008.56
2018-10-03T09:57:11.502Z,1008.55
2018-10-03T09:58:11.519Z,1008.50
2018-10-03T09:59:11.543Z,1008.50
2018-10-03T10:00:11.585Z,1008.54
2018-10-03T10:01:11.583Z,1008.64
2018-10-03T10:02:11.607Z,1008.71
2018-10-03T10:03:11.617Z,1008.79
2018-10-03T10:04:11.640Z,1008.83
2018-10-03T10:05:11.658Z,1009.00
2018-10-03T10:06:11.674Z,1008.95
2018-10-03T10:07:11.692Z,1008.82
2018-10-03T10:08:11.708Z,1008.74
2018-10-03T10:09:11.733Z,1008.71
2018-10-03T10:10:11.804Z,1008.65
2018-10-03T10:11:11.838Z,1008.66
2018-10-03T10:12:11.788Z,1008.68
2018-10-03T10:13:11.832Z,1008.79
2018-10-03T10:14:11.827Z,1008.71
2018-10-03T10:15:11.851Z,1008.69
2018-10-03T10:16:11.899Z,1008.72
2018-10-03T10:17:11.889Z,1008.85
2018-10-03T10:18:11.905Z,1008.78
2018-10-03T10:19:11.918Z,1008.81
2018-10-03T10:20:11.940Z,1008.81
2018-10-03T10:21:11.967Z,1008.82
2018-10-03T10:22:12.004Z,1008.78
2018-10-03T10:23:11.995Z,1008.81
2018-10-03T10:24:12.015Z,1008.91
2018-10-03T10:25:12.043Z,1008.84
2018-10-03T10:26:12.058Z,1008.83
2018-10-03T10:27:12.079Z,1008.75
2018-10-03T10:28:12.101Z,1008.82
2018-10-03T10:29:12.110Z,1008.86
2018-10-03T10:30:12.137Z,1008.90
2018-10-03T10:31:12.154Z,1008.85
2018-10-03T10:32:12.237Z,1008.82
2018-10-03T10:33:12.207Z,1008.69
2018-10-03T10:34:12.218Z,1008.75
2018-10-03T10:35:12.224Z,1008.68
2018-10-03T10:36:12.420Z,1008.62
2018-10-03T10:37:12.466Z,1008.66
2018-10-03T10:38:12.281Z,1008.59
2018-10-03T10:39:12.306Z,1008.66
2018-10-03T10:40:12.390Z,1008.67
2018-10-03T10:41:12.458Z,1008.71
2018-10-03T10:42:12.360Z,1008.88
2018-10-03T10:43:12.401Z,1008.86
2018-10-03T10:44:12.404Z,1008.91
2018-10-03T10:45:12.420Z,1008.99
2018-10-03T10:46:12.440Z,1009.09
2018-10-03T10:47:12.451Z,1009.09
2018-10-03T10:48:12.478Z,1009.21
2018-10-03T10:49:12.498Z,1009.27
2018-10-03T10:50:12.599Z,1009.21
2018-10-03T10:51:12.528Z,1009.12
2018-10-03T10:52:12.560Z,1009.01
2018-10-03T10:53:12.568Z,1008.98
2018-10-03T10:54:12.583Z,1009.10
2018-10-03T10:55:12.605Z,1009.06
2018-10-03T10:56:12.618Z,1009.05
2018-10-03T10:57:12.652Z,1008.99
2018-10-03T10:58:12.662Z,1009.13
2018-10-03T10:59:12.678Z,1009.12
2018-10-03T11:00:12.704Z,1009.19
2018-10-03T11:01:12.736Z,1009.13
2018-10-03T11:02:12.737Z,1009.12
2018-10-03T11:03:12.753Z,1009.16
2018-10-03T11:04:12.790Z,1009.03
2018-10-03T11:05:12.800Z,1009.03
2018-10-03T11:06:12.874Z,1009.06
2018-10-03T11:07:12.837Z,1009.00
2018-10-03T11:08:12.848Z,1008.99
2018-10-03T11:09:12.867Z,1008.90
2018-10-03T11:10:12.901Z,1009.00
2018-10-03T11:11:12.908Z,1008.90
2018-10-03T11:12:12.923Z,1008.98
2018-10-03T11:13:12.945Z,1009.01
2018-10-03T11:14:12.961Z,1009.01
2018-10-03T11:15:12.984Z,1008.92
2018-10-03T11:16:13.003Z,1008.99
2018-10-03T11:17:13.019Z,1009.02
2018-10-03T11:18:13.044Z,1009.05
2018-10-03T11:19:13.061Z,1009.05
2018-10-03T11:20:13.098Z,1009.05
2018-10-03T11:21:13.098Z,1008.99
2018-10-03T11:22:13.110Z,1008.99
2018-10-03T11:23:13.151Z,1009.09
2018-10-03T11:24:13.292Z,1009.03
2018-10-03T11:25:13.173Z,1008.99
2018-10-03T11:26:13.188Z,1009.05
2018-10-03T11:27:13.214Z,1009.03
2018-10-03T11:28:13.250Z,1009.04
2018-10-03T11:29:13.246Z,1009.01
2018-10-03T11:30:13.263Z,1009.17
2018-10-03T11:31:13.292Z,1008.99
2018-10-03T11:32:13.364Z,1009.05
2018-10-03T11:33:13.328Z,1009.06
2018-10-03T11:34:13.358Z,1009.10
2018-10-03T11:35:13.390Z,1008.98
2018-10-03T11:36:13.382Z,1008.91
2018-10-03T11:37:13.402Z,1008.94
2018-10-03T11:38:13.462Z,1009.03
2018-10-03T11:39:13.434Z,1009.12
2018-10-03T11:40:13.459Z,1009.17
2018-10-03T11:41:13.487Z,1009.17
2018-10-03T11:42:13.500Z,1009.08
2018-10-03T11:43:13.510Z,1009.20
2018-10-03T11:44:13.532Z,1009.02
2018-10-03T11:45:13.584Z,1009.13
2018-10-03T11:46:13.570Z,1009.04
2018-10-03T11:47:13.590Z,1009.09
2018-10-03T11:48:13.612Z,1009.12
2018-10-03T11:49:13.625Z,1009.14
2018-10-03T11:50:13.649Z,1009.17
2018-10-03T11:51:13.796Z,1009.20
2018-10-03T11:52:13.684Z,1009.12
2018-10-03T11:53:13.704Z,1009.13
2018-10-03T11:54:13.749Z,1009.30
2018-10-03T11:55:13.740Z,1009.32
2018-10-03T11:56:13.759Z,1009.37
2018-10-03T11:57:13.844Z,1009.30
2018-10-03T11:58:13.806Z,1009.32
2018-10-03T11:59:13.819Z,1009.12
2018-10-03T12:00:13.843Z,1009.18
2018-10-03T12:01:13.866Z,1009.01
2018-10-03T12:02:13.890Z,1009.00
2018-10-03T12:03:13.973Z,1008.98
2018-10-03T12:04:13.925Z,1008.99
2018-10-03T12:05:14.022Z,1008.85